TimeCDT,TemperatureF,Dew PointF,Humidity,Sea Level PressureIn,VisibilityMPH,Wind Direction,Wind SpeedMPH,Gust SpeedMPH,PrecipitationIn,Events,Conditions,WindDirDegrees,DateUTC
12:53 AM,52.0,48.0,86,30.11,10.0,West,5.8,-,N/A,,Mostly Cloudy,260,2012-10-05 05:53:00
1:53 AM,50.0,46.9,89,30.12,10.0,WSW,6.9,-,N/A,,Clear,250,2012-10-05 06:53:00
3:53 AM,48.9,41.0,74,30.13,10.0,West,8.1,-,N/A,,Overcast,270,2012-10-05 08:53:00
4:53 AM,46.9,39.9,77,30.14,10.0,West,8.1,-,0.01,,Mostly Cloudy,280,2012-10-05 09:53:00
5:53 AM,46.0,39.0,76,30.15,10.0,West,6.9,-,N/A,,Partly Cloudy,260,2012-10-05 10:53:00
6:53 AM,45.0,39.0,80,30.15,10.0,WSW,6.9,-,N/A,,Clear,250,2012-10-05 11:53:00
7:53 AM,45.0,39.0,80,30.15,10.0,WSW,6.9,-,N/A,,Clear,250,2012-10-05 12:53:00
8:53 AM,46.0,36.0,68,30.17,10.0,West,9.2,-,N/A,,Clear,260,2012-10-05 13:53:00
9:53 AM,46.9,36.0,66,30.15,10.0,West,9.2,-,N/A,,Mostly Cloudy,270,2012-10-05 14:53:00
10:53 AM,48.0,35.1,61,30.15,10.0,West,8.1,-,N/A,,Overcast,260,2012-10-05 15:53:00
11:53 AM,48.9,35.1,59,30.14,10.0,WSW,4.6,-,N/A,,Overcast,250,2012-10-05 16:53:00
12:53 PM,46.9,37.0,68,30.14,8.0,WSW,6.9,-,0.01,Rain,Light Rain,240,2012-10-05 17:53:00
1:53 PM,46.9,36.0,66,30.13,10.0,WSW,11.5,-,0.00,,Overcast,250,2012-10-05 18:53:00
2:53 PM,44.1,37.9,79,30.09,10.0,SW,6.9,-,0.03,Rain,Light Rain,230,2012-10-05 19:53:00
3:53 PM,44.1,37.9,79,30.09,10.0,WSW,8.1,-,N/A,,Overcast,240,2012-10-05 20:53:00
4:53 PM,44.1,37.9,79,30.09,10.0,WSW,8.1,-,N/A,,Overcast,240,2012-10-05 21:53:00
5:53 PM,44.1,37.9,79,30.12,10.0,WSW,16.1,-,N/A,,Overcast,240,2012-10-05 22:53:00
6:53 PM,43.0,39.0,86,30.10,10.0,WSW,10.4,-,0.00,,Overcast,240,2012-10-05 23:53:00
7:53 PM,43.0,39.0,86,30.08,10.0,WSW,9.2,-,N/A,,Overcast,250,2012-10-06 00:53:00
8:53 PM,43.0,37.9,82,30.08,10.0,WSW,6.9,-,N/A,,Mostly Cloudy,240,2012-10-06 01:53:00
9:53 PM,44.1,35.1,71,30.07,10.0,WSW,9.2,-,N/A,,Overcast,250,2012-10-06 02:53:00
10:53 PM,42.1,30.9,65,30.08,10.0,West,9.2,-,N/A,,Mostly Cloudy,270,2012-10-06 03:53:00
11:53 PM,39.0,28.0,65,30.08,10.0,West,8.1,-,N/A,,Clear,270,2012-10-06 04:53:00